Mc Caskill, Arkansas
Current Conditions -  °F | °C
As of 8:20 AM on Thursday 30 Oct 2014 (Local Time) from KADF Reporting Station
Haze Haze  
Wind Chill: 45°   Ceiling: Unl
Heat Index: 45°   Visibility: 2mi
Dew Point: 45°   Wind: 0mph
Humidity: 100%   Direction: NA
Pressure: 30.18"   Gusts: NA
Location:  33.9177°N, 93.6391°W
Report Text: KADF 301320Z AUTO 00000KT 2SM BR SCT002 07/07 A3018 RMK AO2
Loading
Personal Weather Stations






























Interactive Weather Map
Tropical Storm Tracking
New forecast layout! Learn more

10-Day Weather Forecast

Advertisements
Track Severe Weather on mobile